Time,TemperatureF,DewpointF,PressureIn,WindDirection,WindDirectionDegrees,WindSpeedMPH,WindSpeedGustMPH,Humidity,HourlyPrecipIn,Conditions,Clouds,dailyrainin,SolarRadiationWatts/m^2,SoftwareType,DateUTC
2013-07-06 00:02:00,79.0,60.0,-100.00,SE,137,4.0,8.0,53,-99.99,,,-99.99,0.000000,,2013-07-06 05:02:00,
2013-07-06 00:22:00,77.0,66.0,-100.00,SE,135,4.0,6.0,68,0.00,,,-99.99,0.000000,,2013-07-06 05:22:00,
2013-07-06 00:34:00,77.0,66.0,-100.00,SE,135,4.0,6.0,68,0.00,,,-99.99,0.000000,,2013-07-06 05:34:00,
2013-07-06 00:43:00,77.0,66.0,-100.00,SE,135,4.0,6.0,68,0.00,,,-99.99,0.000000,,2013-07-06 05:43:00,
2013-07-06 00:53:00,77.0,66.0,-100.00,SE,135,4.0,6.0,68,0.00,,,-99.99,0.000000,,2013-07-06 05:53:00,
2013-07-06 01:02:00,77.0,66.0,-100.00,SE,135,4.0,6.0,68,0.00,,,-99.99,0.000000,,2013-07-06 06:02:00,
2013-07-06 01:22:00,76.0,68.0,-100.00,SSE,158,3.0,7.0,77,0.00,,,-99.99,0.000000,,2013-07-06 06:22:00,
2013-07-06 01:34:00,76.0,68.0,-100.00,SSE,158,3.0,7.0,77,0.00,,,-99.99,0.000000,,2013-07-06 06:34:00,
2013-07-06 01:43:00,76.0,68.0,-100.00,SSE,158,3.0,7.0,77,0.00,,,-99.99,0.000000,,2013-07-06 06:43:00,
2013-07-06 01:53:00,76.0,68.0,-100.00,SSE,158,3.0,7.0,77,0.00,,,-99.99,0.000000,,2013-07-06 06:53:00,
2013-07-06 02:02:00,76.0,68.0,-100.00,SSE,158,3.0,7.0,77,0.00,,,-99.99,0.000000,,2013-07-06 07:02:00,
2013-07-06 02:22:00,73.0,68.0,-100.00,South,172,1.0,4.0,84,0.00,,,-99.99,0.000000,,2013-07-06 07:22:00,
2013-07-06 02:33:00,73.0,68.0,-100.00,South,172,1.0,4.0,84,0.00,,,-99.99,0.000000,,2013-07-06 07:33:00,
2013-07-06 02:44:00,73.0,68.0,-100.00,South,172,1.0,4.0,84,0.00,,,-99.99,0.000000,,2013-07-06 07:44:00,
2013-07-06 02:52:00,73.0,68.0,-100.00,South,172,1.0,4.0,84,0.00,,,-99.99,0.000000,,2013-07-06 07:52:00,
2013-07-06 03:02:00,73.0,68.0,-100.00,South,172,1.0,4.0,84,0.00,,,-99.99,0.000000,,2013-07-06 08:02:00,
2013-07-06 03:22:00,72.0,69.0,-100.00,NNW,348,0.0,2.0,89,0.00,,,-99.99,0.000000,,2013-07-06 08:22:00,
2013-07-06 03:34:00,72.0,69.0,-100.00,NNW,348,0.0,2.0,89,0.00,,,-99.99,0.000000,,2013-07-06 08:34:00,
2013-07-06 03:43:00,72.0,69.0,-100.00,NNW,348,0.0,2.0,89,0.00,,,-99.99,0.000000,,2013-07-06 08:43:00,
2013-07-06 03:54:00,72.0,69.0,-100.00,NNW,348,0.0,2.0,89,0.00,,,-99.99,0.000000,,2013-07-06 08:54:00,
2013-07-06 04:02:00,72.0,69.0,-100.00,NNW,348,0.0,2.0,89,0.00,,,-99.99,0.000000,,2013-07-06 09:02:00,
2013-07-06 04:22:00,71.0,69.0,-100.00,SSW,206,0.0,0.0,92,0.00,,,-99.99,0.000000,,2013-07-06 09:22:00,
2013-07-06 04:34:00,71.0,69.0,-100.00,SSW,206,0.0,0.0,92,0.00,,,-99.99,0.000000,,2013-07-06 09:34:00,
2013-07-06 04:43:00,71.0,69.0,-100.00,SSW,206,0.0,0.0,92,0.00,,,-99.99,0.000000,,2013-07-06 09:43:00,
2013-07-06 04:53:00,71.0,69.0,-100.00,SSW,206,0.0,0.0,92,0.00,,,-99.99,0.000000,,2013-07-06 09:53:00,
2013-07-06 05:02:00,71.0,69.0,-100.00,SSW,206,0.0,0.0,92,0.00,,,-99.99,0.000000,,2013-07-06 10:02:00,
2013-07-06 05:22:00,70.0,68.0,-100.00,ENE,60,0.0,0.0,92,0.00,,,-99.99,0.000000,,2013-07-06 10:22:00,
2013-07-06 05:33:00,70.0,68.0,-100.00,ENE,60,0.0,0.0,92,0.00,,,-99.99,0.000000,,2013-07-06 10:33:00,
2013-07-06 05:43:00,70.0,68.0,-100.00,ENE,60,0.0,0.0,92,0.00,,,-99.99,0.000000,,2013-07-06 10:43:00,
2013-07-06 05:53:00,70.0,68.0,-100.00,ENE,60,0.0,0.0,92,0.00,,,-99.99,0.000000,,2013-07-06 10:53:00,
2013-07-06 06:01:00,70.0,68.0,-100.00,ENE,60,0.0,0.0,92,0.00,,,-99.99,0.000000,,2013-07-06 11:01:00,
2013-07-06 06:22:00,70.0,69.0,-100.00,East,85,0.0,0.0,97,0.00,,,-99.99,0.000000,,2013-07-06 11:22:00,
2013-07-06 06:33:00,70.0,69.0,-100.00,East,85,0.0,0.0,97,0.00,,,-99.99,0.000000,,2013-07-06 11:33:00,
2013-07-06 06:43:00,70.0,69.0,-100.00,East,85,0.0,0.0,97,0.00,,,-99.99,0.000000,,2013-07-06 11:43:00,
2013-07-06 06:53:00,70.0,69.0,-100.00,East,85,0.0,0.0,97,0.00,,,-99.99,0.000000,,2013-07-06 11:53:00,
2013-07-06 07:01:00,70.0,69.0,-100.00,East,85,0.0,0.0,97,0.00,,,-99.99,0.000000,,2013-07-06 12:01:00,
2013-07-06 07:22:00,72.0,71.0,-100.00,East,100,3.0,4.0,97,0.00,,,-99.99,14.000000,,2013-07-06 12:22:00,
2013-07-06 07:33:00,72.0,71.0,-100.00,East,100,3.0,4.0,97,0.00,,,-99.99,14.000000,,2013-07-06 12:33:00,
2013-07-06 07:43:00,72.0,71.0,-100.00,East,100,3.0,4.0,97,0.00,,,-99.99,14.000000,,2013-07-06 12:43:00,
2013-07-06 07:52:00,72.0,71.0,-100.00,East,100,3.0,4.0,97,0.00,,,-99.99,14.000000,,2013-07-06 12:52:00,
2013-07-06 08:01:00,72.0,71.0,-100.00,East,100,3.0,4.0,97,0.00,,,-99.99,14.000000,,2013-07-06 13:01:00,
2013-07-06 08:33:00,76.0,72.0,-100.00,SE,126,5.0,7.0,88,0.00,,,-99.99,141.000000,,2013-07-06 13:33:00,
2013-07-06 08:43:00,76.0,72.0,-100.00,SE,126,5.0,7.0,88,0.00,,,-99.99,141.000000,,2013-07-06 13:43:00,
2013-07-06 08:52:00,76.0,72.0,-100.00,SE,126,5.0,7.0,88,0.00,,,-99.99,141.000000,,2013-07-06 13:52:00,
2013-07-06 09:02:00,76.0,72.0,-100.00,SE,126,5.0,7.0,88,0.00,,,-99.99,141.000000,,2013-07-06 14:02:00,
2013-07-06 09:22:00,80.0,73.0,-100.00,ESE,111,5.0,9.0,80,0.00,,,-99.99,368.000000,,2013-07-06 14:22:00,
2013-07-06 09:34:00,80.0,73.0,-100.00,ESE,111,5.0,9.0,80,0.00,,,-99.99,368.000000,,2013-07-06 14:34:00,
2013-07-06 09:42:00,80.0,73.0,-100.00,ESE,111,5.0,9.0,80,0.00,,,-99.99,368.000000,,2013-07-06 14:42:00,
2013-07-06 09:53:00,80.0,73.0,-100.00,ESE,111,5.0,9.0,80,0.00,,,-99.99,368.000000,,2013-07-06 14:53:00,
2013-07-06 10:02:00,80.0,73.0,-100.00,ESE,111,5.0,9.0,80,0.00,,,-99.99,368.000000,,2013-07-06 15:02:00,
2013-07-06 10:03:00,83.0,73.0,-100.00,SE,135,4.0,8.0,73,0.00,,,-99.99,583.000000,,2013-07-06 15:03:00,
2013-07-06 10:22:00,83.0,73.0,-100.00,SE,135,4.0,8.0,73,0.00,,,-99.99,583.000000,,2013-07-06 15:22:00,
2013-07-06 10:34:00,83.0,73.0,-100.00,SE,135,4.0,8.0,73,0.00,,,-99.99,583.000000,,2013-07-06 15:34:00,
2013-07-06 10:43:00,83.0,73.0,-100.00,SE,135,4.0,8.0,73,0.00,,,-99.99,583.000000,,2013-07-06 15:43:00,
2013-07-06 10:53:00,83.0,73.0,-100.00,SE,135,4.0,8.0,73,0.00,,,-99.99,583.000000,,2013-07-06 15:53:00,
2013-07-06 11:03:00,86.0,72.0,-100.00,ESE,108,5.0,9.0,64,0.00,,,-99.99,728.000000,,2013-07-06 16:03:00,
2013-07-06 11:30:00,86.0,72.0,-100.00,ESE,108,5.0,9.0,64,0.00,,,-99.99,728.000000,,2013-07-06 16:30:00,
2013-07-06 12:00:00,86.0,72.0,-100.00,ESE,108,5.0,9.0,64,0.00,,,-99.99,728.000000,,2013-07-06 17:00:00,
2013-07-06 12:03:00,88.0,71.0,-100.00,East,93,5.0,10.0,58,0.00,,,-99.99,980.000000,,2013-07-06 17:03:00,
2013-07-06 12:36:00,88.0,71.0,-100.00,East,93,5.0,10.0,58,0.00,,,-99.99,980.000000,,2013-07-06 17:36:00,
2013-07-06 12:44:00,88.0,71.0,-100.00,East,93,5.0,10.0,58,0.00,,,-99.99,980.000000,,2013-07-06 17:44:00,
2013-07-06 12:59:00,88.0,71.0,-100.00,East,93,5.0,10.0,58,0.00,,,-99.99,980.000000,,2013-07-06 17:59:00,
2013-07-06 13:03:00,90.0,69.0,-100.00,SE,127,5.0,12.0,50,0.00,,,-99.99,1017.000000,,2013-07-06 18:03:00,
2013-07-06 13:38:00,90.0,69.0,-100.00,SE,127,5.0,12.0,50,0.00,,,-99.99,1017.000000,,2013-07-06 18:38:00,
2013-07-06 13:49:00,90.0,69.0,-100.00,SE,127,5.0,12.0,50,0.00,,,-99.99,1017.000000,,2013-07-06 18:49:00,
2013-07-06 14:01:00,90.0,69.0,-100.00,SE,127,5.0,12.0,50,0.00,,,-99.99,1017.000000,,2013-07-06 19:01:00,
2013-07-06 14:03:00,91.0,65.0,-100.00,East,84,7.0,15.0,42,0.00,,,23.51,1053.000000,,2013-07-06 19:03:00,
2013-07-06 14:34:00,91.0,65.0,-100.00,East,84,7.0,15.0,42,0.00,,,23.51,1053.000000,,2013-07-06 19:34:00,
2013-07-06 14:49:00,91.0,65.0,-100.00,East,84,7.0,15.0,42,0.00,,,23.51,1053.000000,,2013-07-06 19:49:00,
2013-07-06 14:58:00,91.0,65.0,-100.00,East,84,7.0,15.0,42,0.00,,,23.51,1053.000000,,2013-07-06 19:58:00,
2013-07-06 15:03:00,92.0,62.0,-100.00,ESE,113,7.0,15.0,37,0.00,,,-99.99,1003.000000,,2013-07-06 20:03:00,
2013-07-06 15:36:00,92.0,62.0,-100.00,ESE,113,7.0,15.0,37,0.00,,,-99.99,1003.000000,,2013-07-06 20:36:00,
2013-07-06 15:51:00,92.0,62.0,-100.00,ESE,113,7.0,15.0,37,0.00,,,-99.99,1003.000000,,2013-07-06 20:51:00,
2013-07-06 16:00:00,92.0,62.0,-100.00,ESE,113,7.0,15.0,37,0.00,,,-99.99,1003.000000,,2013-07-06 21:00:00,
2013-07-06 16:03:00,92.0,62.0,-100.00,SE,131,7.0,13.0,37,0.00,,,0.00,807.000000,,2013-07-06 21:03:00,
2013-07-06 16:37:00,92.0,62.0,-100.00,SE,131,7.0,13.0,37,0.00,,,0.00,807.000000,,2013-07-06 21:37:00,
2013-07-06 16:49:00,92.0,62.0,-100.00,SE,131,7.0,13.0,37,0.00,,,0.00,807.000000,,2013-07-06 21:49:00,
2013-07-06 17:00:00,92.0,62.0,-100.00,SE,131,7.0,13.0,37,0.00,,,0.00,807.000000,,2013-07-06 22:00:00,
2013-07-06 17:03:00,93.0,64.0,-100.00,East,81,5.0,12.0,38,0.00,,,0.00,532.000000,,2013-07-06 22:03:00,
2013-07-06 17:36:00,93.0,64.0,-100.00,East,81,5.0,12.0,38,0.00,,,0.00,532.000000,,2013-07-06 22:36:00,
2013-07-06 17:49:00,93.0,64.0,-100.00,East,81,5.0,12.0,38,0.00,,,0.00,532.000000,,2013-07-06 22:49:00,
2013-07-06 18:03:00,93.0,64.0,-100.00,ESE,118,6.0,11.0,39,0.00,,,0.00,531.000000,,2013-07-06 23:03:00,
2013-07-06 18:34:00,93.0,64.0,-100.00,ESE,118,6.0,11.0,39,0.00,,,0.00,531.000000,,2013-07-06 23:34:00,
2013-07-06 18:59:00,93.0,64.0,-100.00,ESE,118,6.0,11.0,39,0.00,,,0.00,531.000000,,2013-07-06 23:59:00,
2013-07-06 19:03:00,91.0,64.0,-100.00,SE,128,6.0,12.0,41,0.00,,,0.00,306.000000,,2013-07-07 00:03:00,
2013-07-06 19:49:00,91.0,64.0,-100.00,SE,128,6.0,12.0,41,0.00,,,0.00,306.000000,,2013-07-07 00:49:00,
2013-07-06 19:59:00,91.0,64.0,-100.00,SE,128,6.0,12.0,41,0.00,,,0.00,306.000000,,2013-07-07 00:59:00,
2013-07-06 20:03:00,88.0,66.0,-100.00,SE,133,4.0,12.0,49,0.00,,,0.00,93.000000,,2013-07-07 01:03:00,
2013-07-06 20:59:00,88.0,66.0,-100.00,SE,133,4.0,12.0,49,0.00,,,0.00,93.000000,,2013-07-07 01:59:00,
2013-07-06 21:43:00,83.0,68.0,-100.00,SSE,153,0.0,7.0,60,0.00,,,0.00,5.000000,,2013-07-07 02:43:00,
2013-07-06 21:53:00,83.0,68.0,-100.00,SSE,153,0.0,7.0,60,0.00,,,0.00,5.000000,,2013-07-07 02:53:00,
2013-07-06 22:02:00,83.0,68.0,-100.00,SSE,153,0.0,7.0,60,0.00,,,0.00,5.000000,,2013-07-07 03:02:00,
2013-07-06 22:33:00,81.0,68.0,-100.00,SE,136,2.0,5.0,65,0.00,,,-99.99,0.000000,,2013-07-07 03:33:00,
2013-07-06 22:43:00,81.0,68.0,-100.00,SE,136,2.0,5.0,65,0.00,,,-99.99,0.000000,,2013-07-07 03:43:00,
2013-07-06 23:01:00,81.0,68.0,-100.00,SE,136,2.0,5.0,65,0.00,,,-99.99,0.000000,,2013-07-07 04:01:00,
2013-07-06 23:02:00,81.0,68.0,-100.00,SE,136,2.0,5.0,65,0.00,,,-99.99,0.000000,,2013-07-07 04:02:00,
2013-07-06 23:21:00,81.0,69.0,-100.00,SE,134,4.0,8.0,66,0.00,,,0.00,0.000000,,2013-07-07 04:21:00,
2013-07-06 23:31:00,81.0,69.0,-100.00,SE,134,4.0,8.0,66,0.00,,,0.00,0.000000,,2013-07-07 04:31:00,
2013-07-06 23:41:00,81.0,69.0,-100.00,SE,134,4.0,8.0,66,0.00,,,0.00,0.000000,,2013-07-07 04:41:00,
2013-07-06 23:51:00,81.0,69.0,-100.00,SE,134,4.0,8.0,66,0.00,,,0.00,0.000000,,2013-07-07 04:51:00,